Lake Arthur, New Mexico
Current Conditions -  °F | °C
As of 10:35 PM on Sunday 21 Dec 2014 (Local Time) from KATS Reporting Station
Clear Clear  
Wind Chill: 13°   Ceiling: Unl
Heat Index: 13°   Visibility: 10mi
Dew Point: -2°   Wind: 15mph
Humidity: 36%   Direction: 240°WSW
Pressure: 29.78"   Gusts: 24mph
Location:  33°N, 104.37°W
Report Text: KATS 220535Z AUTO 24013G21KT 10SM CLR 13/M02 A2978 RMK AO2
Loading
Personal Weather Stations






























Interactive Weather Map New forecast layout! Learn more

10-Day Weather Forecast

Advertisements
Track Severe Weather on mobile